createdAt,value
2023-04-28T00:02:14.978Z,6.00
2023-04-28T00:05:03.850Z,5.13
2023-04-28T00:07:50.620Z,5.50
2023-04-28T00:10:37.296Z,3.90
2023-04-28T00:13:24.011Z,3.37
2023-04-28T00:16:11.494Z,4.30
2023-04-28T00:18:58.666Z,3.33
2023-04-28T00:21:47.330Z,3.07
2023-04-28T00:24:36.313Z,6.37
2023-04-28T00:27:22.966Z,6.07
2023-04-28T00:30:10.909Z,2.70
2023-04-28T00:32:57.601Z,2.77
2023-04-28T00:35:44.580Z,10.87
2023-04-28T00:38:32.915Z,3.33
2023-04-28T00:41:19.490Z,4.80
2023-04-28T00:44:06.668Z,4.30
2023-04-28T00:46:53.921Z,4.17
2023-04-28T00:49:40.792Z,4.13
2023-04-28T00:52:28.005Z,6.73
2023-04-28T00:55:17.427Z,4.07
2023-04-28T00:58:04.342Z,3.27
2023-04-28T01:00:51.267Z,6.37
2023-04-28T01:03:39.749Z,3.53
2023-04-28T01:06:27.348Z,2.40
2023-04-28T01:09:14.215Z,3.90
2023-04-28T01:12:03.044Z,2.97
2023-04-28T01:14:50.500Z,4.10
2023-04-28T01:17:37.578Z,3.83
2023-04-28T01:20:24.426Z,4.17
2023-04-28T01:23:13.999Z,3.03
2023-04-28T01:26:03.268Z,4.27
2023-04-28T01:28:50.108Z,6.20
2023-04-28T01:31:37.111Z,5.23
2023-04-28T01:34:30.772Z,4.33
2023-04-28T01:37:17.574Z,5.10
2023-04-28T01:40:05.402Z,4.40
2023-04-28T01:42:53.992Z,3.10
2023-04-28T01:45:40.753Z,4.67
2023-04-28T01:48:27.665Z,3.47
2023-04-28T01:51:21.754Z,3.53
2023-04-28T01:54:08.835Z,6.63
2023-04-28T01:57:35.097Z,7.70
2023-04-28T02:00:23.370Z,5.47
2023-04-28T02:03:10.553Z,5.37
2023-04-28T02:05:57.486Z,3.53
2023-04-28T02:08:44.290Z,6.93
2023-04-28T02:11:31.229Z,4.60
2023-04-28T02:14:18.256Z,4.90
2023-04-28T02:17:06.645Z,4.77
2023-04-28T02:20:02.697Z,4.10
2023-04-28T02:22:49.586Z,5.40
2023-04-28T02:25:36.414Z,9.40
2023-04-28T02:28:23.375Z,3.93
2023-04-28T02:31:12.011Z,7.07
2023-04-28T02:34:00.246Z,4.20
2023-04-28T02:36:53.737Z,3.83
2023-04-28T02:39:40.402Z,9.33
2023-04-28T02:42:27.569Z,4.00
2023-04-28T02:45:15.709Z,5.43
2023-04-28T02:48:03.802Z,4.77
2023-04-28T02:50:53.095Z,4.97
2023-04-28T02:53:39.797Z,8.07
2023-04-28T02:56:26.700Z,4.63
2023-04-28T02:59:13.336Z,4.93
2023-04-28T03:01:59.770Z,5.27
2023-04-28T03:04:46.724Z,7.97
2023-04-28T03:07:35.108Z,5.97
2023-04-28T03:10:22.294Z,7.27
2023-04-28T03:13:08.986Z,6.90
2023-04-28T03:16:02.971Z,5.43
2023-04-28T03:18:49.784Z,4.43
2023-04-28T03:21:36.532Z,5.47
2023-04-28T03:24:25.001Z,6.10
2023-04-28T03:27:17.801Z,4.80
2023-04-28T03:30:04.262Z,8.20
2023-04-28T03:32:51.371Z,8.57
2023-04-28T03:35:38.210Z,5.33
2023-04-28T03:38:31.931Z,10.73
2023-04-28T03:41:19.839Z,8.57
2023-04-28T03:44:06.924Z,10.90
2023-04-28T03:46:53.844Z,9.77
2023-04-28T03:49:41.019Z,5.87
2023-04-28T03:52:28.182Z,7.87
2023-04-28T03:55:15.253Z,8.23
2023-04-28T03:58:03.353Z,9.13
2023-04-28T04:00:49.983Z,7.10
2023-04-28T04:03:36.738Z,5.27
2023-04-28T04:06:23.961Z,5.67
2023-04-28T04:09:11.124Z,6.90
2023-04-28T04:11:58.827Z,7.97
2023-04-28T04:14:47.054Z,6.43
2023-04-28T04:17:33.894Z,6.90
2023-04-28T04:20:20.837Z,9.87
2023-04-28T04:23:07.934Z,5.03
2023-04-28T04:25:54.999Z,8.13
2023-04-28T04:28:41.994Z,4.73
2023-04-28T04:31:30.368Z,6.67
2023-04-28T04:34:17.596Z,10.03
2023-04-28T04:37:04.572Z,8.57
2023-04-28T04:39:51.727Z,8.60
2023-04-28T04:42:38.843Z,6.00
2023-04-28T04:45:25.801Z,10.83
2023-04-28T04:48:14.311Z,7.23
2023-04-28T04:51:01.221Z,7.03
2023-04-28T04:53:48.151Z,6.67
2023-04-28T04:56:34.924Z,8.23
2023-04-28T04:59:21.838Z,12.50
2023-04-28T05:02:08.572Z,5.27
2023-04-28T05:05:08.026Z,4.90
2023-04-28T05:08:03.745Z,6.50
2023-04-28T05:10:50.570Z,6.10
2023-04-28T05:13:37.175Z,7.23
2023-04-28T05:16:24.379Z,4.37
2023-04-28T05:19:11.610Z,2.83
2023-04-28T05:22:01.215Z,4.07
2023-04-28T05:24:48.304Z,3.53
2023-04-28T05:27:37.695Z,3.70
2023-04-28T05:30:24.621Z,6.13
2023-04-28T05:33:11.758Z,3.10
2023-04-28T05:36:05.815Z,1.40
2023-04-28T05:38:54.672Z,2.63
2023-04-28T05:41:41.755Z,1.67
2023-04-28T05:44:28.601Z,2.90
2023-04-28T05:47:21.857Z,2.43
2023-04-28T05:50:10.040Z,2.03
2023-04-28T05:53:03.014Z,1.77
2023-04-28T05:55:51.753Z,2.23
2023-04-28T05:58:47.281Z,1.87
2023-04-28T06:01:34.473Z,1.27
2023-04-28T06:04:28.253Z,1.67
2023-04-28T06:07:15.260Z,1.20
2023-04-28T06:10:08.843Z,1.70
2023-04-28T06:13:04.993Z,1.37
2023-04-28T06:15:58.873Z,0.63
2023-04-28T06:18:48.431Z,1.70
2023-04-28T06:21:39.584Z,1.50
2023-04-28T06:24:32.602Z,2.07
2023-04-28T06:27:25.955Z,1.47
2023-04-28T06:30:19.937Z,0.40
2023-04-28T06:33:13.795Z,0.73
2023-04-28T06:36:00.749Z,0.80
2023-04-28T06:38:47.802Z,0.40
2023-04-28T06:41:34.835Z,1.60
2023-04-28T06:44:21.625Z,1.73
2023-04-28T06:47:09.796Z,0.43
2023-04-28T06:49:57.444Z,0.50
2023-04-28T06:52:44.609Z,1.03
2023-04-28T06:55:31.666Z,1.37
2023-04-28T06:58:18.594Z,0.40
2023-04-28T07:01:05.895Z,0.47
2023-04-28T07:03:54.466Z,0.77
2023-04-28T07:06:41.442Z,2.33
2023-04-28T07:09:29.428Z,1.83
2023-04-28T07:12:18.269Z,0.47
2023-04-28T07:15:05.438Z,2.40
2023-04-28T07:17:52.534Z,3.60
2023-04-28T07:20:41.011Z,14.63
2023-04-28T07:23:27.893Z,9.33
2023-04-28T07:26:16.428Z,6.50
2023-04-28T07:29:04.150Z,1.77
2023-04-28T07:31:51.132Z,3.10
2023-04-28T07:34:38.414Z,2.30
2023-04-28T07:37:26.646Z,1.77
2023-04-28T07:40:13.464Z,1.93
2023-04-28T07:43:00.178Z,4.07
2023-04-28T07:45:49.087Z,0.50
2023-04-28T07:48:36.222Z,0.93
2023-04-28T07:51:23.181Z,0.57
2023-04-28T07:54:11.113Z,0.80
2023-04-28T07:56:59.093Z,0.80
2023-04-28T07:59:46.008Z,0.60
2023-04-28T08:02:34.677Z,0.30
2023-04-28T08:05:34.693Z,0.40
2023-04-28T08:08:41.669Z,0.43
2023-04-28T08:11:36.983Z,3.33
2023-04-28T08:14:23.850Z,1.13
2023-04-28T08:17:10.947Z,0.30
2023-04-28T08:19:58.750Z,0.97
2023-04-28T08:22:45.782Z,1.07
2023-04-28T08:25:32.500Z,1.00
2023-04-28T08:28:21.263Z,0.30
2023-04-28T08:31:08.317Z,0.30
2023-04-28T08:33:55.762Z,0.50
2023-04-28T08:36:42.711Z,0.33
2023-04-28T08:39:30.917Z,0.77
2023-04-28T08:42:19.207Z,0.30
2023-04-28T08:45:09.034Z,2.43
2023-04-28T08:47:57.829Z,0.33
2023-04-28T08:50:50.048Z,0.30
2023-04-28T08:53:59.280Z,0.30
2023-04-28T08:56:47.250Z,0.53
2023-04-28T08:59:34.114Z,0.80
2023-04-28T09:02:22.514Z,0.30
2023-04-28T09:05:10.331Z,0.77
2023-04-28T09:07:57.240Z,2.47
2023-04-28T09:10:44.050Z,0.57
2023-04-28T09:13:32.229Z,0.57
2023-04-28T09:16:19.743Z,0.40
2023-04-28T09:19:08.202Z,1.17
2023-04-28T09:21:56.616Z,0.77
2023-04-28T09:24:43.546Z,0.67
2023-04-28T09:27:30.600Z,0.37
2023-04-28T09:30:17.845Z,0.90
2023-04-28T09:33:07.706Z,1.20
2023-04-28T09:35:57.025Z,0.70
2023-04-28T09:38:46.042Z,0.40
2023-04-28T09:41:40.519Z,3.50
2023-04-28T09:44:27.567Z,0.30
2023-04-28T09:47:22.587Z,0.25
2023-04-28T09:50:12.811Z,0.40
2023-04-28T09:53:04.071Z,0.30
2023-04-28T09:55:53.159Z,0.30
2023-04-28T09:58:44.543Z,0.40
2023-04-28T10:01:38.113Z,0.70
2023-04-28T10:04:26.002Z,1.15
2023-04-28T10:10:09.574Z,1.03
2023-04-28T10:12:56.937Z,0.80
2023-04-28T10:15:44.423Z,1.95
2023-04-28T10:18:31.958Z,1.37
2023-04-28T10:21:22.025Z,2.30
2023-04-28T10:24:19.429Z,0.73
2023-04-28T10:27:10.375Z,0.35
2023-04-28T10:30:23.071Z,0.30
2023-04-28T10:33:27.491Z,0.65
2023-04-28T10:36:51.146Z,0.30
2023-04-28T10:39:39.735Z,0.30
2023-04-28T10:42:53.666Z,0.47
2023-04-28T10:46:03.695Z,0.32
2023-04-28T10:49:08.541Z,0.30
2023-04-28T10:51:56.912Z,0.40
2023-04-28T10:55:23.395Z,0.52
2023-04-28T10:58:34.316Z,0.40
2023-04-28T11:01:28.883Z,0.30
2023-04-28T11:04:17.913Z,1.30
2023-04-28T11:07:14.755Z,0.65
2023-04-28T11:10:02.927Z,2.05
2023-04-28T11:13:23.009Z,1.75
2023-04-28T11:16:10.195Z,1.05
2023-04-28T11:19:06.226Z,0.70
2023-04-28T11:21:55.036Z,1.88
2023-04-28T11:24:42.115Z,0.57
2023-04-28T11:27:31.645Z,0.63
2023-04-28T11:30:22.415Z,0.25
2023-04-28T11:33:10.188Z,0.30
2023-04-28T11:35:57.507Z,0.40
2023-04-28T11:38:45.125Z,0.30
2023-04-28T11:41:32.793Z,1.80
2023-04-28T11:44:22.578Z,1.05
2023-04-28T11:47:09.686Z,0.75
2023-04-28T11:49:57.047Z,1.15
2023-04-28T11:52:51.715Z,1.35
2023-04-28T11:55:40.452Z,1.00
2023-04-28T11:58:27.881Z,0.30
2023-04-28T12:01:16.099Z,0.50
2023-04-28T12:04:03.713Z,0.98
2023-04-28T12:07:00.805Z,1.27
2023-04-28T12:09:49.419Z,0.98
2023-04-28T12:12:49.037Z,0.80
2023-04-28T12:15:42.226Z,1.00
2023-04-28T12:18:31.270Z,0.50
2023-04-28T12:21:23.037Z,0.98
2023-04-28T12:24:21.713Z,0.88
2023-04-28T12:27:21.774Z,0.93
2023-04-28T12:30:26.545Z,0.50
2023-04-28T12:33:26.257Z,1.27
2023-04-28T12:36:16.270Z,0.40
2023-04-28T12:39:03.415Z,1.08
2023-04-28T12:41:50.355Z,0.40
2023-04-28T12:44:38.680Z,2.45
2023-04-28T12:47:25.833Z,0.70
2023-04-28T12:50:13.117Z,2.38
2023-04-28T12:53:01.331Z,0.40
2023-04-28T12:56:01.791Z,0.73
2023-04-28T12:59:09.773Z,0.95
2023-04-28T13:02:16.814Z,1.38
2023-04-28T13:05:10.957Z,0.60
2023-04-28T13:07:57.750Z,1.85
2023-04-28T13:10:46.522Z,1.05
2023-04-28T13:13:33.210Z,1.80
2023-04-28T13:16:20.308Z,1.20
2023-04-28T13:19:10.747Z,1.73
2023-04-28T13:21:57.999Z,0.93
2023-04-28T13:24:44.828Z,1.13
2023-04-28T13:27:33.592Z,1.02
2023-04-28T13:30:20.723Z,2.78
2023-04-28T13:33:07.925Z,3.42
2023-04-28T13:35:54.807Z,0.88
2023-04-28T13:38:41.712Z,1.65
2023-04-28T13:41:28.810Z,0.93
2023-04-28T13:44:16.798Z,3.45
2023-04-28T13:47:05.352Z,2.05
2023-04-28T13:49:51.951Z,0.57
2023-04-28T13:52:38.534Z,1.80
2023-04-28T13:55:28.183Z,2.78
2023-04-28T13:58:15.054Z,2.67
2023-04-28T14:01:04.457Z,2.45
2023-04-28T14:03:51.348Z,2.05
2023-04-28T14:06:38.623Z,2.85
2023-04-28T14:09:25.661Z,3.13
2023-04-28T14:12:13.822Z,2.33
2023-04-28T14:15:00.583Z,2.55
2023-04-28T14:17:49.901Z,1.35
2023-04-28T14:20:37.317Z,2.33
2023-04-28T14:23:24.487Z,1.40
2023-04-28T14:26:11.701Z,1.85
2023-04-28T14:29:00.157Z,0.75
2023-04-28T14:31:46.623Z,1.90
2023-04-28T14:34:35.038Z,0.40
2023-04-28T14:37:22.121Z,2.28
2023-04-28T14:40:10.245Z,1.20
2023-04-28T14:42:56.984Z,0.57
2023-04-28T14:45:44.775Z,2.80
2023-04-28T14:48:32.406Z,1.38
2023-04-28T14:51:20.728Z,1.23
2023-04-28T14:54:09.169Z,2.13
2023-04-28T14:56:56.414Z,1.30
2023-04-28T14:59:43.341Z,0.88
2023-04-28T15:02:30.671Z,1.65
2023-04-28T15:05:17.578Z,2.65
2023-04-28T15:08:06.446Z,1.92
2023-04-28T15:10:52.881Z,1.52
2023-04-28T15:13:40.964Z,3.50
2023-04-28T15:16:29.181Z,1.25
2023-04-28T15:19:16.363Z,2.17
2023-04-28T15:22:03.760Z,2.58
2023-04-28T15:24:52.806Z,2.13
2023-04-28T15:27:42.894Z,1.08
2023-04-28T15:30:29.872Z,0.98
2023-04-28T15:33:18.623Z,0.60
2023-04-28T15:36:05.863Z,0.50
2023-04-28T15:38:53.040Z,0.57
2023-04-28T15:41:41.530Z,0.40
2023-04-28T15:44:30.428Z,1.00
2023-04-28T15:47:17.695Z,0.50
2023-04-28T15:50:05.116Z,2.95
2023-04-28T15:52:52.379Z,1.50
2023-04-28T15:55:39.483Z,3.45
2023-04-28T15:58:27.967Z,0.40
2023-04-28T16:01:14.652Z,0.65
2023-04-28T16:04:01.821Z,0.65
2023-04-28T16:06:50.414Z,0.40
2023-04-28T16:09:37.468Z,1.38
2023-04-28T16:12:25.400Z,0.60
2023-04-28T16:15:14.625Z,0.98
2023-04-28T16:18:02.302Z,0.60
2023-04-28T16:20:49.472Z,0.95
2023-04-28T16:23:36.701Z,2.70
2023-04-28T16:26:24.032Z,1.17
2023-04-28T16:29:12.843Z,0.63
2023-04-28T16:32:02.488Z,2.17
2023-04-28T16:34:49.741Z,2.75
2023-04-28T16:37:39.164Z,1.70
2023-04-28T16:40:26.619Z,0.98
2023-04-28T16:43:13.418Z,1.10
2023-04-28T16:46:00.591Z,0.57
2023-04-28T16:48:49.149Z,0.85
2023-04-28T16:51:36.781Z,3.17
2023-04-28T16:54:23.832Z,1.35
2023-04-28T16:57:10.909Z,3.92
2023-04-28T16:59:57.775Z,1.40
2023-04-28T17:02:45.078Z,1.58
2023-04-28T17:05:34.181Z,1.92
2023-04-28T17:08:21.650Z,0.82
2023-04-28T17:11:09.176Z,2.58
2023-04-28T17:13:56.324Z,2.10
2023-04-28T17:16:43.723Z,0.85
2023-04-28T17:19:30.637Z,10.32
2023-04-28T17:22:18.829Z,0.90
2023-04-28T17:25:06.759Z,0.73
2023-04-28T17:27:53.554Z,3.60
2023-04-28T17:30:43.878Z,1.45
2023-04-28T17:33:34.010Z,0.47
2023-04-28T17:36:23.168Z,2.17
2023-04-28T17:39:11.369Z,0.73
2023-04-28T17:41:58.647Z,0.73
2023-04-28T17:44:45.159Z,1.25
2023-04-28T17:47:32.435Z,1.98
2023-04-28T17:50:19.864Z,1.75
2023-04-28T17:53:06.818Z,1.02
2023-04-28T17:55:55.758Z,0.98
2023-04-28T17:58:43.611Z,1.58
2023-04-28T18:01:30.882Z,1.00
2023-04-28T18:04:17.741Z,0.60
2023-04-28T18:07:04.570Z,3.95
2023-04-28T18:09:53.005Z,1.08
2023-04-28T18:12:41.454Z,0.68
2023-04-28T18:15:28.178Z,1.25
2023-04-28T18:18:15.803Z,1.38
2023-04-28T18:21:02.825Z,1.55
2023-04-28T18:23:50.045Z,1.67
2023-04-28T18:26:36.890Z,3.13
2023-04-28T18:29:25.842Z,1.10
2023-04-28T18:32:14.738Z,1.00
2023-04-28T18:35:02.291Z,0.77
2023-04-28T18:37:49.774Z,1.33
2023-04-28T18:40:38.761Z,1.00
2023-04-28T18:43:27.962Z,0.93
2023-04-28T18:46:16.735Z,0.88
2023-04-28T18:49:04.193Z,1.60
2023-04-28T18:51:51.153Z,1.40
2023-04-28T18:54:37.822Z,1.45
2023-04-28T18:57:24.495Z,1.15
2023-04-28T19:00:11.714Z,1.35
2023-04-28T19:02:59.908Z,3.37
2023-04-28T19:05:47.723Z,1.30
2023-04-28T19:08:34.975Z,3.57
2023-04-28T19:11:22.156Z,1.60
2023-04-28T19:14:09.257Z,2.17
2023-04-28T19:16:56.323Z,2.03
2023-04-28T19:19:44.341Z,0.98
2023-04-28T19:22:36.070Z,1.17
2023-04-28T19:25:23.420Z,3.15
2023-04-28T19:28:11.747Z,3.00
2023-04-28T19:30:59.377Z,1.60
2023-04-28T19:33:46.129Z,2.90
2023-04-28T19:36:34.475Z,3.77
2023-04-28T19:39:22.167Z,3.03
2023-04-28T19:42:09.093Z,3.37
2023-04-28T19:44:57.479Z,2.07
2023-04-28T19:47:44.905Z,1.40
2023-04-28T19:50:31.576Z,1.77
2023-04-28T19:53:20.114Z,2.63
2023-04-28T19:56:08.187Z,2.53
2023-04-28T19:58:55.339Z,2.97
2023-04-28T20:01:42.388Z,1.42
2023-04-28T20:04:30.748Z,1.10
2023-04-28T20:07:18.486Z,1.33
2023-04-28T20:10:07.408Z,1.93
2023-04-28T20:12:55.367Z,3.93
2023-04-28T20:15:42.382Z,1.40
2023-04-28T20:18:29.355Z,2.50
2023-04-28T20:21:16.167Z,2.13
2023-04-28T20:24:02.803Z,2.95
2023-04-28T20:26:51.908Z,2.60
2023-04-28T20:29:39.412Z,2.07
2023-04-28T20:32:26.437Z,3.20
2023-04-28T20:35:13.244Z,2.10
2023-04-28T20:38:00.286Z,2.53
2023-04-28T20:40:47.030Z,2.87
2023-04-28T20:43:35.549Z,1.77
2023-04-28T20:46:22.924Z,4.13
2023-04-28T20:49:10.995Z,2.23
2023-04-28T20:52:03.950Z,7.03
2023-04-28T20:54:52.244Z,2.30
2023-04-28T20:57:39.103Z,3.33
2023-04-28T21:00:27.371Z,1.53
2023-04-28T21:03:15.851Z,1.55
2023-04-28T21:06:03.132Z,2.03
2023-04-28T21:08:50.318Z,3.03
2023-04-28T21:11:37.098Z,3.47
2023-04-28T21:14:23.907Z,2.20
2023-04-28T21:17:12.301Z,1.47
2023-04-28T21:19:59.098Z,1.83
2023-04-28T21:22:45.878Z,5.60
2023-04-28T21:25:32.576Z,3.77
2023-04-28T21:28:19.987Z,3.40
2023-04-28T21:31:07.203Z,2.10
2023-04-28T21:33:55.164Z,3.63
2023-04-28T21:36:42.196Z,2.15
2023-04-28T21:39:29.219Z,3.57
2023-04-28T21:42:16.462Z,2.72
2023-04-28T21:45:03.622Z,2.33
2023-04-28T21:47:50.602Z,2.10
2023-04-28T21:50:38.860Z,2.38
2023-04-28T21:53:25.708Z,1.95
2023-04-28T21:56:12.614Z,2.85
2023-04-28T21:59:00.145Z,3.00
2023-04-28T22:01:47.161Z,2.15
2023-04-28T22:04:35.531Z,3.20
2023-04-28T22:07:25.657Z,1.80
2023-04-28T22:10:13.797Z,2.28
2023-04-28T22:13:01.444Z,1.83
2023-04-28T22:15:48.456Z,1.90
2023-04-28T22:18:35.979Z,3.17
2023-04-28T22:21:22.737Z,2.53
2023-04-28T22:24:10.934Z,3.07
2023-04-28T22:26:58.016Z,1.60
2023-04-28T22:29:45.245Z,1.90
2023-04-28T22:32:32.342Z,2.20
2023-04-28T22:35:19.110Z,2.40
2023-04-28T22:38:06.637Z,2.67
2023-04-28T22:40:55.204Z,5.65
2023-04-28T22:43:42.839Z,2.42
2023-04-28T22:46:30.106Z,3.50
2023-04-28T22:49:16.904Z,2.28
2023-04-28T22:52:04.008Z,7.27
2023-04-28T22:54:50.810Z,2.88
2023-04-28T22:57:38.946Z,2.30
2023-04-28T23:00:26.195Z,1.15
2023-04-28T23:03:12.865Z,3.20
2023-04-28T23:05:59.772Z,3.25
2023-04-28T23:08:46.512Z,5.50
2023-04-28T23:11:34.003Z,2.72
2023-04-28T23:14:22.212Z,1.73
2023-04-28T23:17:09.170Z,2.50
2023-04-28T23:19:55.893Z,3.97
2023-04-28T23:22:42.724Z,2.35
2023-04-28T23:25:29.916Z,2.28
2023-04-28T23:28:16.749Z,2.67
2023-04-28T23:31:05.072Z,3.08
2023-04-28T23:33:52.038Z,2.85
2023-04-28T23:36:38.924Z,2.63
2023-04-28T23:39:25.802Z,3.17
2023-04-28T23:42:12.579Z,2.25
2023-04-28T23:45:01.449Z,1.83
2023-04-28T23:47:49.514Z,2.85
2023-04-28T23:50:36.575Z,2.57
2023-04-28T23:53:23.616Z,3.17
2023-04-28T23:56:10.275Z,3.40
2023-04-28T23:58:57.317Z,4.30
